High Bridge, Wisconsin
Current Conditions -  °F | °C
As of 3:53 PM on Sunday 23 Nov 2014 (Local Time) from KASX Reporting Station
Moderate Fog Moderate Fog  
Wind Chill: 44°   Ceiling: 500
Heat Index: 44°   Visibility: 0mi
Dew Point: 44°   Wind: 0mph
Humidity: 100%   Direction: NA
Pressure: 29.38"   Gusts: NA
Location:  46.39°N, 90.74°W
Report Text: KASX 232153Z AUTO 00000KT M1/4SM FG VV005 07/07 A2938 RMK AO2 SLP957 T00670067
Loading
Personal Weather Stations






























Interactive Weather Map New forecast layout! Learn more

10-Day Weather Forecast

Advertisements
Track Severe Weather on mobile